Time;durP1;ratioP1;P1;durP2;ratioP2;P2;SDS_P1;SDS_P2;PMS_P1;PMS_P2;Temp;Humidity;BMP_temperature;BMP_pressure;BME280_temperature;BME280_humidity;BME280_pressure;Samples;Min_cycle;Max_cycle;Signal;HPM_P1;HPM_P2
2022/05/26 00:01:16;;;;;;;11.85;10.65;;;;;;;11.50;100.00;100952.56;4972699;28;20266;-48
2022/05/26 00:03:43;;;;;;;12.35;10.88;;;;;;;11.49;100.00;100942.78;4972007;28;20213;-49
2022/05/26 00:06:10;;;;;;;11.10;10.10;;;;;;;11.49;100.00;100937.44;4972297;28;20511;-47
2022/05/26 00:08:37;;;;;;;12.15;9.98;;;;;;;11.56;100.00;100946.97;4972691;28;20184;-50
2022/05/26 00:11:08;;;;;;;14.00;10.93;;;;;;;11.52;100.00;100946.25;4972319;28;20608;-48
2022/05/26 00:13:35;;;;;;;12.70;11.55;;;;;;;11.50;100.00;100937.38;4971952;28;20289;-50
2022/05/26 00:16:01;;;;;;;13.60;11.23;;;;;;;11.51;100.00;100930.19;4972540;28;20265;-47
2022/05/26 00:18:27;;;;;;;15.90;11.68;;;;;;;11.55;100.00;100927.31;4972169;28;20266;-50
2022/05/26 00:20:52;;;;;;;13.48;12.18;;;;;;;11.57;100.00;100916.53;4972341;28;20266;-49
2022/05/26 00:23:18;;;;;;;13.70;12.50;;;;;;;11.52;100.00;100914.03;4971350;28;20202;-49
2022/05/26 00:25:43;;;;;;;14.45;12.35;;;;;;;11.57;100.00;100923.69;4972395;28;20183;-50
2022/05/26 00:28:09;;;;;;;15.98;12.77;;;;;;;11.59;100.00;100921.81;4972430;28;20186;-47
2022/05/26 00:30:37;;;;;;;14.48;13.02;;;;;;;11.57;100.00;100923.69;4972024;28;20206;-49
2022/05/26 00:33:04;;;;;;;13.90;12.52;;;;;;;11.56;100.00;100925.50;4971661;28;20705;-48
2022/05/26 00:35:30;;;;;;;14.63;13.23;;;;;;;11.58;100.00;100914.72;4970761;28;20257;-50
2022/05/26 00:37:55;;;;;;;13.20;12.13;;;;;;;11.64;100.00;100914.47;4972261;28;20174;-48
2022/05/26 00:40:21;;;;;;;14.32;12.93;;;;;;;11.61;100.00;100922.63;4972161;28;20182;-49
2022/05/26 00:42:50;;;;;;;14.20;12.68;;;;;;;11.64;100.00;100918.00;4971952;28;20210;-49
2022/05/26 00:45:15;;;;;;;13.90;12.55;;;;;;;11.64;100.00;100923.38;4971543;28;20198;-48
2022/05/26 00:47:44;;;;;;;12.88;11.77;;;;;;;11.66;100.00;100924.19;4971819;28;20345;-48
2022/05/26 00:50:31;;;;;;;13.55;12.20;;;;;;;11.64;100.00;100928.75;4971966;28;20175;-47
2022/05/26 00:53:13;;;;;;;15.30;12.60;;;;;;;11.68;100.00;100926.81;4971132;28;20194;-48
2022/05/26 00:55:43;;;;;;;13.15;11.85;;;;;;;11.66;100.00;100934.06;4971793;28;20213;-47
2022/05/26 00:58:14;;;;;;;13.48;12.25;;;;;;;11.74;100.00;100930.13;4971965;28;20185;-47
2022/05/26 01:00:41;;;;;;;17.13;11.90;;;;;;;11.77;100.00;100934.50;4971679;28;20269;-47
2022/05/26 01:03:19;;;;;;;11.73;10.57;;;;;;;11.76;100.00;100940.78;4971155;28;20578;-48
2022/05/26 01:05:51;;;;;;;13.43;10.57;;;;;;;11.82;100.00;100945.03;4971450;28;20224;-48
2022/05/26 01:08:30;;;;;;;13.05;10.38;;;;;;;11.78;100.00;100944.28;4971700;28;20669;-49
2022/05/26 01:10:56;;;;;;;13.32;9.00;;;;;;;11.78;100.00;100946.97;4970547;28;20641;-48
2022/05/26 01:13:22;;;;;;;19.10;9.18;;;;;;;11.86;100.00;100935.91;4970821;28;20197;-50
2022/05/26 01:15:57;;;;;;;12.02;8.85;;;;;;;11.86;100.00;100941.28;4966757;28;20193;-48
2022/05/26 01:18:51;;;;;;;14.85;8.70;;;;;;;11.85;100.00;100940.44;4960203;28;20186;-48
2022/05/26 01:21:21;;;;;;;13.48;7.30;;;;;;;11.89;100.00;100950.09;4964869;28;20178;-48
2022/05/26 01:23:55;;;;;;;16.65;7.45;;;;;;;11.91;100.00;100950.03;4970820;28;20213;-49
2022/05/26 01:26:20;;;;;;;24.70;7.57;;;;;;;11.77;100.00;100945.22;4971364;28;20574;-48
2022/05/26 01:29:22;;;;;;;15.40;6.50;;;;;;;11.85;100.00;100944.91;4971564;28;20186;-48
2022/05/26 01:31:50;;;;;;;17.52;7.03;;;;;;;11.84;100.00;100944.03;4971058;28;20193;-47
2022/05/26 01:34:38;;;;;;;25.33;6.63;;;;;;;11.91;100.00;100942.84;4970894;28;20170;-48
2022/05/26 01:37:26;;;;;;;19.48;6.47;;;;;;;11.95;100.00;100944.47;4970839;28;20225;-47
2022/05/26 01:40:13;;;;;;;21.88;5.80;;;;;;;11.97;100.00;100943.56;4971467;28;20186;-46
2022/05/26 01:43:12;;;;;;;20.20;5.53;;;;;;;11.95;100.00;100944.47;4971182;28;20213;-48
2022/05/26 01:46:17;;;;;;;24.77;6.28;;;;;;;12.05;100.00;100954.84;4971121;28;20233;-48
2022/05/26 01:48:48;;;;;;;16.75;5.30;;;;;;;12.02;100.00;100946.91;4969940;28;20649;-47
2022/05/26 01:51:31;;;;;;;19.77;5.60;;;;;;;11.98;100.00;100962.25;4971207;28;20269;-46
2022/05/26 01:54:12;;;;;;;27.13;5.57;;;;;;;12.00;100.00;100948.78;4970520;28;20704;-48
2022/05/26 01:56:55;;;;;;;23.33;5.43;;;;;;;12.02;100.00;100961.19;4971079;28;20190;-48
2022/05/26 01:59:33;;;;;;;18.05;4.85;;;;;;;12.02;100.00;100963.03;4970997;28;20300;-47
2022/05/26 02:02:04;;;;;;;19.70;4.60;;;;;;;12.05;100.00;100965.59;4971108;28;20202;-48
2022/05/26 02:04:38;;;;;;;20.30;4.63;;;;;;;12.07;100.00;100978.03;4969218;28;20198;-49
2022/05/26 02:07:13;;;;;;;25.92;4.70;;;;;;;11.99;100.00;100968.53;4974235;28;20194;-48
2022/05/26 02:09:41;;;;;;;24.92;5.15;;;;;;;12.00;100.00;100972.94;4975096;28;20626;-48
2022/05/26 02:12:20;;;;;;;21.70;5.07;;;;;;;12.04;100.00;100982.63;4974668;28;20638;-48
2022/05/26 02:14:52;;;;;;;24.65;5.32;;;;;;;12.02;100.00;100977.31;4974286;28;20174;-49
2022/05/26 02:17:31;;;;;;;26.17;5.65;;;;;;;12.02;100.00;100981.81;4974436;28;20169;-48
2022/05/26 02:20:03;;;;;;;21.42;4.63;;;;;;;12.08;100.00;100974.38;4974183;28;20198;-49
2022/05/26 02:22:36;;;;;;;23.63;5.00;;;;;;;12.05;100.00;100973.66;4974607;28;20233;-49
2022/05/26 02:25:16;;;;;;;18.02;4.18;;;;;;;12.02;100.00;100973.75;4973703;28;20265;-48
2022/05/26 02:27:42;;;;;;;20.83;4.13;;;;;;;11.98;100.00;100973.00;4974846;28;20170;-48
2022/05/26 02:30:08;;;;;;;19.50;4.20;;;;;;;11.99;100.00;100982.81;4974081;28;20174;-48
2022/05/26 02:32:46;;;;;;;26.23;5.28;;;;;;;12.01;100.00;100972.91;4972882;28;20581;-46
2022/05/26 02:35:20;;;;;;;23.85;5.20;;;;;;;12.08;100.00;100973.50;4973824;28;20174;-48
2022/05/26 02:37:47;;;;;;;21.08;4.65;;;;;;;12.00;100.00;100972.94;4974067;28;20181;-50
2022/05/26 02:40:13;;;;;;;22.80;4.65;;;;;;;12.12;100.00;100984.06;4974305;28;20668;-49
2022/05/26 02:42:47;;;;;;;22.27;4.57;;;;;;;12.08;100.00;100981.56;4973634;28;20202;-50
2022/05/26 02:45:15;;;;;;;24.50;4.85;;;;;;;12.12;100.00;100993.94;4973255;28;20459;-47
2022/05/26 02:48:01;;;;;;;20.27;4.57;;;;;;;12.09;100.00;100996.72;4973547;28;20265;-47
2022/05/26 02:50:56;;;;;;;23.70;4.32;;;;;;;12.14;100.00;100990.25;4972610;28;20272;-48
2022/05/26 02:53:35;;;;;;;23.70;5.15;;;;;;;12.12;100.00;100989.44;4965558;28;20206;-50
2022/05/26 02:56:33;;;;;;;24.65;4.43;;;;;;;12.06;100.00;100997.75;4973701;28;20192;-46
2022/05/26 02:59:01;;;;;;;23.95;4.43;;;;;;;12.05;100.00;100993.31;4973526;28;20170;-48
2022/05/26 03:01:33;;;;;;;25.45;4.82;;;;;;;12.00;100.00;100987.25;4973008;28;20181;-47
2022/05/26 03:04:07;;;;;;;23.25;4.72;;;;;;;12.04;100.00;100988.88;4972770;28;20198;-49
2022/05/26 03:06:55;;;;;;;24.55;5.35;;;;;;;11.98;100.00;100986.44;4973089;28;20200;-49
2022/05/26 03:09:21;;;;;;;27.67;5.30;;;;;;;11.96;100.00;100985.66;4973102;28;20217;-49
2022/05/26 03:11:54;;;;;;;26.35;5.50;;;;;;;11.98;100.00;100994.50;4972763;28;20190;-49
2022/05/26 03:14:21;;;;;;;25.60;4.53;;;;;;;11.98;100.00;100989.13;4972620;28;20534;-47
2022/05/26 03:16:47;;;;;;;28.98;5.18;;;;;;;12.01;100.00;100989.00;4965876;28;20186;-48
2022/05/26 03:19:13;;;;;;;25.65;5.30;;;;;;;11.98;100.00;100988.25;4961761;28;20190;-48
2022/05/26 03:21:39;;;;;;;31.25;5.15;;;;;;;11.99;100.00;100992.69;4972900;28;20181;-48
2022/05/26 03:24:06;;;;;;;30.33;5.97;;;;;;;11.98;100.00;100991.81;4971688;28;20234;-50
2022/05/26 03:26:32;;;;;;;26.50;4.20;;;;;;;12.00;100.00;101000.66;4968091;28;20545;-49
2022/05/26 03:28:57;;;;;;;23.90;4.43;;;;;;;11.93;100.00;100996.50;4954184;28;20189;-50
2022/05/26 03:31:23;;;;;;;22.27;4.28;;;;;;;11.97;100.00;101014.25;4953383;29;20543;-49
2022/05/26 03:42:02;;;;;;;20.58;4.43;;;;;;;11.93;100.00;101008.09;4953325;29;20208;-48
2022/05/26 03:44:30;;;;;;;28.02;4.65;;;;;;;11.90;100.00;101018.13;4952587;29;20186;-49
2022/05/26 03:46:55;;;;;;;28.05;5.00;;;;;;;11.88;100.00;101018.16;4954144;28;20192;-47
2022/05/26 03:49:21;;;;;;;22.35;4.60;;;;;;;11.85;100.00;101028.13;4972378;28;20170;-46
2022/05/26 03:51:46;;;;;;;31.40;4.88;;;;;;;11.85;100.00;101023.66;4972247;28;20248;-47
2022/05/26 03:54:12;;;;;;;21.85;4.38;;;;;;;11.92;100.00;101025.16;4971932;28;20170;-48
2022/05/26 03:56:37;;;;;;;25.45;4.75;;;;;;;11.89;100.00;101022.59;4970885;28;20182;-47
2022/05/26 03:59:03;;;;;;;29.92;5.13;;;;;;;11.97;100.00;101029.47;4972694;28;20261;-47
2022/05/26 04:01:28;;;;;;;28.48;5.38;;;;;;;11.86;100.00;101025.38;4972570;28;20233;-47
2022/05/26 04:03:55;;;;;;;29.83;4.65;;;;;;;11.86;100.00;101028.06;4971806;28;20302;-48
2022/05/26 04:06:21;;;;;;;27.38;5.15;;;;;;;11.89;100.00;101037.84;4972510;28;20189;-48
2022/05/26 04:08:47;;;;;;;33.03;5.13;;;;;;;11.90;100.00;101035.09;4972331;28;20178;-49
2022/05/26 04:11:12;;;;;;;19.25;4.38;;;;;;;11.88;100.00;101039.66;4972478;28;20584;-49
2022/05/26 04:13:38;;;;;;;23.70;4.13;;;;;;;11.94;100.00;101051.97;4972014;28;20197;-48
2022/05/26 04:16:03;;;;;;;22.25;4.45;;;;;;;12.00;100.00;101051.69;4972124;28;20277;-48
2022/05/26 04:18:29;;;;;;;21.70;4.72;;;;;;;12.06;100.00;101047.91;4972244;28;20184;-48
2022/05/26 04:21:04;;;;;;;26.77;4.45;;;;;;;12.07;100.00;101055.91;4972183;28;20167;-47
2022/05/26 04:23:29;;;;;;;26.63;4.88;;;;;;;12.04;100.00;101060.50;4971489;28;20248;-48
2022/05/26 04:25:55;;;;;;;20.55;4.80;;;;;;;12.21;100.00;101060.69;4972156;28;20229;-48
2022/05/26 04:28:20;;;;;;;24.27;5.07;;;;;;;12.15;100.00;101069.00;4970926;28;20257;-46
2022/05/26 04:30:46;;;;;;;23.00;4.20;;;;;;;12.08;100.00;101065.69;4972249;28;20193;-48
2022/05/26 04:33:11;;;;;;;20.15;3.72;;;;;;;12.05;100.00;101073.03;4971192;28;20186;-49
2022/05/26 04:35:36;;;;;;;22.67;3.70;;;;;;;11.99;100.00;101071.44;4971869;28;20201;-49
2022/05/26 04:38:02;;;;;;;18.13;4.47;;;;;;;11.99;100.00;101070.56;4971754;28;20179;-48
2022/05/26 04:40:27;;;;;;;23.23;3.97;;;;;;;11.90;100.00;101067.31;4971813;28;20538;-48
2022/05/26 04:42:53;;;;;;;24.58;4.60;;;;;;;11.99;100.00;101073.25;4972147;28;20349;-49
2022/05/26 04:45:19;;;;;;;23.77;4.50;;;;;;;12.02;100.00;101086.56;4971378;28;20310;-49
2022/05/26 04:47:44;;;;;;;23.90;4.50;;;;;;;12.12;100.00;101093.31;4971404;28;20695;-50
2022/05/26 04:50:11;;;;;;;24.25;3.75;;;;;;;12.19;100.00;101100.19;4970473;28;20205;-48
2022/05/26 04:52:37;;;;;;;24.80;4.40;;;;;;;12.24;100.00;101087.41;4971636;28;20304;-49
2022/05/26 04:55:03;;;;;;;15.95;3.05;;;;;;;12.10;100.00;101088.00;4970043;28;20642;-49
2022/05/26 04:57:29;;;;;;;17.92;3.58;;;;;;;12.04;100.00;101095.44;4971973;28;20225;-50
2022/05/26 04:59:54;;;;;;;17.63;3.42;;;;;;;12.25;100.00;101105.31;4971403;28;20186;-49
2022/05/26 05:02:22;;;;;;;19.90;3.92;;;;;;;12.34;100.00;101096.00;4971500;28;20643;-48
2022/05/26 05:04:48;;;;;;;20.00;3.65;;;;;;;12.28;100.00;101102.47;4971028;28;20212;-47
2022/05/26 05:07:15;;;;;;;20.25;3.83;;;;;;;12.30;100.00;101105.97;4971583;28;20240;-48
2022/05/26 05:09:41;;;;;;;21.55;3.30;;;;;;;12.42;100.00;101101.94;4971769;28;20176;-46
2022/05/26 05:12:11;;;;;;;22.92;3.72;;;;;;;12.68;100.00;101103.53;4971380;28;20198;-50
2022/05/26 05:14:41;;;;;;;21.52;3.40;;;;;;;12.51;100.00;101112.28;4970908;28;20540;-47
2022/05/26 05:17:06;;;;;;;14.88;3.25;;;;;;;12.66;99.64;101105.41;4971887;28;20185;-46
2022/05/26 05:19:32;;;;;;;13.05;2.83;;;;;;;12.63;98.59;101110.88;4970131;28;20174;-49
2022/05/26 05:22:09;;;;;;;15.88;3.38;;;;;;;12.70;98.18;101104.34;4971258;28;20198;-47
2022/05/26 05:24:36;;;;;;;19.45;3.80;;;;;;;12.76;97.05;101116.63;4970432;28;20752;-48
2022/05/26 05:27:25;;;;;;;16.38;3.38;;;;;;;12.83;96.86;101118.09;4971352;28;20213;-47
2022/05/26 05:29:55;;;;;;;14.77;2.92;;;;;;;12.87;96.51;101117.03;4970439;28;20277;-48
2022/05/26 05:32:35;;;;;;;19.83;3.53;;;;;;;12.91;96.59;101123.16;4971124;28;20201;-48
2022/05/26 05:35:09;;;;;;;13.70;2.60;;;;;;;12.83;95.70;101122.63;4970711;28;20249;-48
2022/05/26 05:37:35;;;;;;;19.58;3.10;;;;;;;13.03;95.06;101119.94;4970730;28;20173;-48
2022/05/26 05:40:01;;;;;;;18.17;2.58;;;;;;;12.99;94.39;101121.03;4972379;28;20297;-48
2022/05/26 05:42:28;;;;;;;16.77;3.58;;;;;;;12.90;93.74;101113.34;4974358;28;20288;-49
2022/05/26 05:44:54;;;;;;;17.35;3.13;;;;;;;13.01;93.62;101121.84;4974178;28;20221;-46
2022/05/26 05:47:19;;;;;;;12.68;3.25;;;;;;;13.12;92.42;101124.91;4974231;28;20189;-49
2022/05/26 05:49:44;;;;;;;18.67;4.00;;;;;;;13.10;91.50;101129.50;4973540;28;20621;-48
2022/05/26 05:52:16;;;;;;;15.10;2.85;;;;;;;13.23;91.83;101137.00;4974857;28;20280;-48
2022/05/26 05:54:42;;;;;;;18.13;3.03;;;;;;;13.09;91.00;101135.78;4974318;28;20178;-47
2022/05/26 05:57:07;;;;;;;16.63;2.92;;;;;;;13.29;90.05;101139.47;4974975;28;20784;-47
2022/05/26 05:59:33;;;;;;;15.50;3.30;;;;;;;13.28;89.92;101140.38;4974763;28;20193;-48
2022/05/26 06:01:59;;;;;;;11.82;2.60;;;;;;;13.42;89.41;101146.03;4974742;28;20202;-47
2022/05/26 06:04:24;;;;;;;12.15;2.55;;;;;;;13.44;89.02;101152.22;4974148;28;20198;-49
2022/05/26 06:06:50;;;;;;;12.13;2.80;;;;;;;13.51;88.54;101142.97;4974525;28;20826;-46
2022/05/26 06:09:17;;;;;;;16.75;2.72;;;;;;;13.49;87.38;101147.53;4974717;28;20174;-48
2022/05/26 06:11:43;;;;;;;14.27;2.88;;;;;;;13.47;87.95;101157.50;4974755;28;20201;-48
2022/05/26 06:14:09;;;;;;;15.70;2.53;;;;;;;13.66;86.99;101154.81;4972565;28;20548;-46
2022/05/26 06:16:35;;;;;;;12.98;2.60;;;;;;;13.86;85.31;101153.88;4974636;28;20177;-47
2022/05/26 06:19:00;;;;;;;11.90;2.90;;;;;;;13.75;85.73;101157.09;4974386;28;20181;-48
2022/05/26 06:21:26;;;;;;;14.38;2.75;;;;;;;14.16;84.26;101164.16;4972891;28;20169;-48
2022/05/26 06:23:55;;;;;;;12.60;2.85;;;;;;;13.81;84.22;101166.72;4973979;28;20218;-46
2022/05/26 06:26:20;;;;;;;12.05;3.00;;;;;;;13.86;83.75;101167.34;4974387;28;20161;-48
2022/05/26 06:31:30;;;;;;;11.57;2.65;;;;;;;14.52;83.06;101158.81;4974248;28;20674;-48
2022/05/26 06:39:24;;;;;;;16.48;3.13;;;;;;;14.11;80.97;101183.25;4958158;28;20189;-46
2022/05/26 06:42:05;;;;;;;9.18;2.10;;;;;;;13.97;80.38;101180.31;4954885;29;20198;-47
2022/05/26 06:44:38;;;;;;;15.10;2.72;;;;;;;14.68;79.44;101177.84;4953812;29;20230;-48
2022/05/26 06:47:11;;;;;;;15.80;2.35;;;;;;;14.96;78.85;101173.75;4955457;28;20185;-48
2022/05/26 06:49:38;;;;;;;16.48;2.97;;;;;;;14.70;78.03;101175.94;4972056;28;20240;-47
2022/05/26 06:52:04;;;;;;;13.18;3.05;;;;;;;14.10;78.02;101169.84;4971015;28;20229;-48
2022/05/26 06:54:32;;;;;;;10.68;3.03;;;;;;;13.89;79.64;101183.41;4971547;28;20249;-47
2022/05/26 06:56:57;;;;;;;9.98;2.17;;;;;;;13.83;80.37;101185.50;4971492;28;20178;-49
2022/05/26 06:59:23;;;;;;;10.38;2.40;;;;;;;13.99;79.91;101187.41;4972045;28;20535;-46
2022/05/26 07:01:48;;;;;;;11.90;2.17;;;;;;;13.91;79.34;101200.34;4972110;28;20614;-46
2022/05/26 07:04:13;;;;;;;7.90;2.03;;;;;;;14.18;78.52;101194.63;4971517;28;20301;-47
2022/05/26 07:06:39;;;;;;;12.57;2.50;;;;;;;14.11;78.32;101193.16;4971670;28;20190;-47
2022/05/26 07:09:04;;;;;;;12.13;2.22;;;;;;;14.09;79.62;101189.66;4968407;28;20200;-46
2022/05/26 07:11:32;;;;;;;13.43;2.30;;;;;;;14.58;79.19;101196.31;4971441;28;20204;-47
2022/05/26 07:13:57;;;;;;;11.43;2.17;;;;;;;14.67;76.74;101200.38;4970922;28;20576;-45
2022/05/26 07:16:23;;;;;;;7.00;1.98;;;;;;;14.91;75.39;101208.16;4971796;28;20185;-46
2022/05/26 07:18:50;;;;;;;10.05;1.92;;;;;;;14.70;75.18;101200.22;4971756;28;20202;-46
2022/05/26 07:21:16;;;;;;;7.63;1.85;;;;;;;14.86;71.93;101211.09;4971710;28;20167;-46
2022/05/26 07:23:42;;;;;;;7.97;1.85;;;;;;;15.41;71.91;101194.81;4970933;28;20268;-46
2022/05/26 07:26:11;;;;;;;8.65;1.77;;;;;;;15.48;69.14;101203.44;4971505;28;20270;-47
2022/05/26 07:28:38;;;;;;;6.93;1.75;;;;;;;15.62;68.62;101198.16;4971193;28;20219;-48
2022/05/26 07:31:03;;;;;;;8.02;1.42;;;;;;;15.88;67.14;101206.75;4971415;28;20815;-46
2022/05/26 07:33:29;;;;;;;8.00;1.58;;;;;;;16.35;65.03;101210.47;4970636;28;20193;-49
2022/05/26 07:35:54;;;;;;;8.30;1.50;;;;;;;16.25;62.63;101202.88;4969794;28;20212;-47
2022/05/26 07:41:20;;;;;;;7.30;1.75;;;;;;;15.61;63.81;101217.16;4953708;28;20198;-46
2022/05/26 07:43:52;;;;;;;6.95;1.40;;;;;;;15.25;64.01;101227.09;4970985;28;20204;-49
2022/05/26 07:46:20;;;;;;;8.73;1.48;;;;;;;15.77;63.57;101220.81;4973025;28;20182;-47
2022/05/26 07:48:47;;;;;;;9.20;1.65;;;;;;;16.22;63.62;101234.59;4972776;28;20630;-48
2022/05/26 07:51:12;;;;;;;7.43;2.03;;;;;;;15.70;63.44;101218.50;4972786;28;20186;-48
2022/05/26 07:53:38;;;;;;;7.20;1.63;;;;;;;15.51;65.12;101234.81;4972082;28;20205;-46
2022/05/26 07:56:04;;;;;;;7.95;1.40;;;;;;;15.59;64.42;101235.25;4972851;28;20208;-47
2022/05/26 07:58:29;;;;;;;4.78;1.20;;;;;;;14.98;65.23;101228.53;4972651;28;20170;-47
2022/05/26 08:00:55;;;;;;;10.27;2.05;;;;;;;15.31;63.49;101238.56;4972758;28;20193;-47
2022/05/26 08:03:21;;;;;;;9.52;1.70;;;;;;;15.23;64.57;101236.22;4971708;28;20235;-46
2022/05/26 08:05:47;;;;;;;7.72;1.88;;;;;;;15.79;62.68;101239.66;4972212;28;20225;-47
2022/05/26 08:08:13;;;;;;;7.15;1.40;;;;;;;15.36;63.67;101226.56;4972671;28;20240;-46
2022/05/26 08:10:39;;;;;;;9.30;1.55;;;;;;;15.10;64.18;101252.16;4972541;28;20205;-47
2022/05/26 08:13:06;;;;;;;6.05;1.50;;;;;;;14.91;66.14;101252.25;4972073;28;20196;-47
2022/05/26 08:15:32;;;;;;;8.18;1.70;;;;;;;14.68;65.83;101264.16;4972584;28;20206;-48
2022/05/26 08:17:58;;;;;;;8.52;1.42;;;;;;;14.86;65.48;101264.19;4972234;28;20173;-46
2022/05/26 08:20:24;;;;;;;7.13;1.35;;;;;;;14.78;65.54;101268.16;4972378;28;20559;-47
2022/05/26 08:22:49;;;;;;;5.78;1.15;;;;;;;14.90;65.26;101274.75;4972230;28;20233;-46
2022/05/26 08:25:15;;;;;;;6.72;1.33;;;;;;;15.62;64.03;101260.28;4960519;28;20201;-48
2022/05/26 08:27:40;;;;;;;5.00;1.20;;;;;;;16.20;61.63;101258.16;4951568;29;20179;-47
2022/05/26 08:30:07;;;;;;;9.43;1.50;;;;;;;16.17;61.43;101267.31;4951569;29;20186;-46
2022/05/26 08:32:32;;;;;;;7.72;1.60;;;;;;;15.63;62.15;101267.47;4951731;29;20195;-46
2022/05/26 08:35:00;;;;;;;6.10;1.42;;;;;;;15.72;61.08;101273.34;4952191;29;20540;-46
2022/05/26 08:37:26;;;;;;;5.30;1.20;;;;;;;16.11;60.18;101272.16;4952610;29;20187;-46
2022/05/26 08:39:51;;;;;;;5.82;1.33;;;;;;;15.73;60.10;101280.50;4952707;29;20183;-46
2022/05/26 08:42:43;;;;;;;4.80;1.67;;;;;;;14.79;61.89;101283.38;4952583;29;20195;-45
2022/05/26 08:45:11;;;;;;;4.20;1.23;;;;;;;14.93;63.22;101304.28;4949440;28;20206;-46
2022/05/26 08:47:44;;;;;;;5.60;1.50;;;;;;;15.12;62.48;101303.38;4967172;28;20196;-46
2022/05/26 08:50:16;;;;;;;8.60;1.90;;;;;;;15.58;61.51;101298.34;4968828;28;20182;-48
2022/05/26 08:52:44;;;;;;;5.65;1.45;;;;;;;15.71;61.83;101288.69;4968838;28;20288;-48
2022/05/26 08:55:19;;;;;;;11.77;2.05;;;;;;;15.91;61.33;101305.69;4969241;28;20614;-48
2022/05/26 08:57:54;;;;;;;7.68;1.70;;;;;;;16.30;61.97;101309.91;4970232;28;20232;-46
2022/05/26 09:00:22;;;;;;;8.30;2.22;;;;;;;16.48;61.19;101307.03;4969732;28;20178;-46
2022/05/26 09:02:54;;;;;;;5.63;1.50;;;;;;;17.06;60.45;101293.94;4968389;28;20273;-47
2022/05/26 09:05:21;;;;;;;7.18;1.83;;;;;;;16.24;59.78;101301.16;4969155;28;20577;-46
2022/05/26 09:13:32;;;;;;;6.90;1.50;;;;;;;15.23;62.17;101314.50;4968466;28;20257;-45
2022/05/26 09:15:59;;;;;;;7.20;1.70;;;;;;;15.80;63.50;101322.44;4968405;28;20181;-48
2022/05/26 09:18:25;;;;;;;6.28;1.38;;;;;;;15.50;63.71;101322.16;4967913;28;20170;-47
2022/05/26 09:20:51;;;;;;;7.85;1.48;;;;;;;15.31;64.02;101306.91;4969490;28;20260;-49
2022/05/26 09:23:25;;;;;;;7.50;1.88;;;;;;;15.61;62.86;101323.38;4968712;28;20193;-46
2022/05/26 09:25:55;;;;;;;7.05;1.60;;;;;;;15.66;62.03;101320.44;4969521;28;20224;-48
2022/05/26 09:28:50;;;;;;;6.88;1.38;;;;;;;15.96;61.86;101336.03;4970107;28;20752;-48
2022/05/26 09:31:16;;;;;;;5.68;1.33;;;;;;;15.80;59.33;101330.56;4969375;28;20284;-49
2022/05/26 09:33:42;;;;;;;4.43;0.98;;;;;;;15.30;60.97;101336.69;4970770;28;20194;-47
2022/05/26 09:36:22;;;;;;;4.68;1.50;;;;;;;16.11;60.74;101328.94;4970426;28;20704;-46
2022/05/26 09:38:47;;;;;;;6.70;1.67;;;;;;;16.68;58.82;101326.69;4970990;28;20228;-46
2022/05/26 09:41:15;;;;;;;5.88;1.17;;;;;;;16.74;59.36;101330.91;4970892;28;20170;-47
2022/05/26 09:43:48;;;;;;;8.35;1.30;;;;;;;16.51;58.22;101341.19;4970084;28;20209;-47
2022/05/26 09:46:16;;;;;;;6.70;1.30;;;;;;;16.00;59.03;101357.41;4971164;28;20185;-45
2022/05/26 09:48:45;;;;;;;6.40;1.20;;;;;;;15.52;59.19;101345.44;4970795;28;20194;-45
2022/05/26 09:51:13;;;;;;;7.88;1.40;;;;;;;15.24;59.98;101338.75;4971178;28;20216;-48
2022/05/26 09:53:42;;;;;;;4.55;1.50;;;;;;;14.86;61.17;101351.41;4970385;28;20248;-47
2022/05/26 09:56:11;;;;;;;6.63;1.65;;;;;;;14.85;61.71;101360.44;4970356;28;20549;-46
2022/05/26 09:58:43;;;;;;;4.60;1.35;;;;;;;16.01;60.99;101363.72;4971017;28;20185;-47
2022/05/26 10:01:14;;;;;;;11.50;1.65;;;;;;;16.20;59.74;101356.38;4970745;28;20210;-47
2022/05/26 10:04:07;;;;;;;4.28;1.33;;;;;;;16.05;60.33;101363.47;4970423;28;20205;-45
2022/05/26 10:06:41;;;;;;;5.72;1.23;;;;;;;16.12;60.92;101361.31;4970457;28;20551;-47
2022/05/26 10:09:12;;;;;;;12.35;1.42;;;;;;;15.54;59.58;101367.84;4970784;28;20589;-49
2022/05/26 10:11:53;;;;;;;8.45;1.38;;;;;;;15.16;60.73;101370.63;4970883;28;20202;-46
2022/05/26 10:14:38;;;;;;;8.63;1.70;;;;;;;15.16;60.77;101369.75;4970121;28;20229;-46
2022/05/26 10:17:03;;;;;;;8.35;1.80;;;;;;;15.06;62.01;101376.56;4970717;28;20201;-49
2022/05/26 10:20:00;;;;;;;11.13;1.65;;;;;;;14.99;62.41;101375.97;4970670;28;20214;-48
2022/05/26 10:22:42;;;;;;;5.40;1.73;;;;;;;15.64;62.49;101381.78;4969596;28;20202;-48
2022/05/26 10:26:03;;;;;;;6.28;1.48;;;;;;;15.63;61.77;101375.50;4969904;28;20241;-47
2022/05/26 10:28:35;;;;;;;8.27;1.75;;;;;;;15.50;61.76;101378.88;4908295;28;20184;-49
2022/05/26 10:31:25;;;;;;;3.90;1.30;;;;;;;15.54;61.62;101383.19;4974241;28;20206;-49
2022/05/26 10:34:08;;;;;;;8.68;1.92;;;;;;;15.51;63.32;101389.63;4973702;28;20642;-47
2022/05/26 10:36:48;;;;;;;5.95;1.60;;;;;;;15.15;62.11;101381.50;4974081;28;20531;-48
2022/05/26 10:39:37;;;;;;;8.98;2.10;;;;;;;15.86;60.88;101392.41;4974028;28;20185;-49
2022/05/26 10:42:18;;;;;;;7.20;1.23;;;;;;;16.42;59.40;101382.25;4961836;28;20218;-48
2022/05/26 10:44:56;;;;;;;4.85;1.23;;;;;;;16.13;58.99;101378.41;4973333;28;20238;-48
2022/05/26 10:47:34;;;;;;;4.18;1.15;;;;;;;15.95;58.43;101405.44;4974305;28;20838;-47
2022/05/26 10:50:07;;;;;;;7.65;1.98;;;;;;;15.72;58.02;101394.91;4973915;28;20174;-48
2022/05/26 10:52:41;;;;;;;4.47;0.98;;;;;;;15.42;57.01;101401.75;4973955;28;20747;-48
2022/05/26 10:55:18;;;;;;;2.88;0.90;;;;;;;14.87;57.49;101415.22;4973321;28;20302;-46
2022/05/26 10:57:57;;;;;;;7.05;1.35;;;;;;;14.73;59.64;101409.56;4973836;28;20235;-48
2022/05/26 11:00:29;;;;;;;7.15;1.45;;;;;;;14.81;60.51;101419.06;4973224;28;20182;-47
2022/05/26 11:03:19;;;;;;;8.18;1.88;;;;;;;14.65;62.23;101423.44;4973366;28;20190;-47
2022/05/26 11:05:57;;;;;;;6.68;1.58;;;;;;;14.66;63.15;101425.16;4973659;28;20190;-46
2022/05/26 11:08:46;;;;;;;7.78;1.50;;;;;;;15.44;62.82;101428.69;4973536;28;20616;-46
2022/05/26 11:11:31;;;;;;;7.85;1.17;;;;;;;14.77;63.92;101435.47;4973713;28;20265;-49
2022/05/26 11:14:04;;;;;;;10.05;2.38;;;;;;;14.89;64.22;101423.22;4971849;28;20519;-49
2022/05/26 11:19:39;;;;;;;8.25;1.90;;;;;;;14.99;64.64;101424.53;4973383;28;20174;-48
2022/05/26 11:22:05;;;;;;;8.15;1.52;;;;;;;15.10;64.16;101432.13;4973265;28;20264;-47
2022/05/26 11:24:32;;;;;;;5.82;1.90;;;;;;;15.02;63.45;101422.59;4972861;28;20673;-49
2022/05/26 11:27:37;;;;;;;8.10;1.63;;;;;;;14.69;63.37;101414.22;4973222;28;20166;-50
2022/05/26 11:30:05;;;;;;;7.72;1.88;;;;;;;14.25;65.49;101430.56;4959529;28;20340;-48
2022/05/26 11:38:43;;;;;;;7.28;1.50;;;;;;;15.48;62.02;101411.38;4972581;28;20638;-48
2022/05/26 11:41:58;;;;;;;6.43;1.27;;;;;;;15.77;61.42;101411.78;4970171;28;20198;-48
2022/05/26 11:45:03;;;;;;;9.02;1.30;;;;;;;16.63;58.24;101399.16;4966242;28;20248;-49
2022/05/26 11:47:47;;;;;;;5.70;1.13;;;;;;;16.35;57.80;101403.34;4972845;28;20186;-47
2022/05/26 11:50:47;;;;;;;6.93;1.20;;;;;;;15.54;59.78;101421.00;4970660;28;20162;-49
2022/05/26 11:53:40;;;;;;;4.53;1.00;;;;;;;15.79;60.20;101426.09;4954996;28;20198;-46
2022/05/26 11:56:23;;;;;;;5.50;1.33;;;;;;;16.37;59.13;101406.81;4972975;28;20190;-47
2022/05/26 11:59:19;;;;;;;5.32;1.30;;;;;;;15.96;58.62;101422.50;4972639;28;20245;-47
2022/05/26 12:01:47;;;;;;;5.72;1.20;;;;;;;16.61;57.88;101404.63;4972805;28;20205;-48
2022/05/26 12:04:30;;;;;;;3.20;1.27;;;;;;;15.82;57.66;101407.88;4971742;28;20572;-47
2022/05/26 12:07:04;;;;;;;5.32;1.33;;;;;;;15.65;58.75;101406.03;4972510;28;20329;-47
2022/05/26 12:09:49;;;;;;;4.93;1.20;;;;;;;15.55;58.83;101415.53;4972139;28;20833;-50
2022/05/26 12:12:17;;;;;;;4.47;1.00;;;;;;;15.39;57.75;101407.31;4972556;28;20209;-48